Time;durP1;ratioP1;P1;durP2;ratioP2;P2;SDS_P1;SDS_P2;PMS_P1;PMS_P2;Temp;Humidity;BMP_temperature;BMP_pressure;BME280_temperature;BME280_humidity;BME280_pressure;Samples;Min_cycle;Max_cycle;Signal;HPM_P1;HPM_P2
2021/09/15 00:02:05;;;;;;;;;;;;;;;8.21;97.31;99266.78;5031712;28;19917;-84
2021/09/15 00:04:31;;;;;;;;;;;;;;;8.25;97.59;99271.03;5034447;28;20348;-85
2021/09/15 03:16:11;;;;;;;;;;;;;;;7.82;95.46;99199.78;5212261;23;19928;-84
2021/09/15 03:18:37;;;;;;;;;;;;;;;7.78;95.90;99206.06;5061989;28;19925;-84
2021/09/15 03:21:02;;;;;;;;;;;;;;;7.88;95.77;99205.72;5054011;28;20027;-85
2021/09/15 03:23:27;;;;;;;;;;;;;;;7.92;95.81;99204.69;5053748;28;19917;-84
2021/09/15 03:25:52;;;;;;;;;;;;;;;7.85;96.83;99195.28;5049299;28;19927;-85
2021/09/15 03:28:18;;;;;;;;;;;;;;;7.94;100.00;99200.19;5053722;28;20326;-85
2021/09/15 03:30:43;;;;;;;;;;;;;;;8.27;100.00;99216.38;5052427;28;19925;-85
2021/09/15 03:33:08;;;;;;;;;;;;;;;8.39;100.00;99222.91;5053757;28;19921;-85
2021/09/15 03:35:33;;;;;;;;;;;;;;;8.36;100.00;99216.00;5053666;28;20318;-84
2021/09/15 03:37:58;;;;;;;;;;;;;;;8.45;100.00;99216.56;5054891;28;19921;-85
2021/09/15 03:40:24;;;;;;;;;;;;;;;8.53;100.00;99214.44;5054851;28;19921;-84
2021/09/15 03:42:50;;;;;;;;;;;;;;;8.59;100.00;99219.44;5053550;28;20456;-85
2021/09/15 03:45:15;;;;;;;;;;;;;;;8.70;100.00;99216.34;5052180;28;19928;-85
2021/09/15 03:47:41;;;;;;;;;;;;;;;8.78;100.00;99214.22;5054710;28;19921;-84
2021/09/15 03:50:06;;;;;;;;;;;;;;;8.96;100.00;99222.25;5053408;28;19970;-84
2021/09/15 03:52:32;;;;;;;;;;;;;;;9.16;100.00;99222.19;5053177;28;19920;-85
2021/09/15 03:54:57;;;;;;;;;;;;;;;9.64;100.00;99225.25;5053197;28;20331;-86
2021/09/15 03:57:22;;;;;;;;;;;;;;;9.75;100.00;99227.41;5054565;28;20394;-85
2021/09/15 03:59:47;;;;;;;;;;;;;;;9.76;100.00;99222.00;5053329;28;19920;-89
2021/09/15 04:02:12;;;;;;;;;;;;;;;9.69;100.00;99227.69;5054458;28;19916;-89
2021/09/15 04:04:38;;;;;;;;;;;;;;;9.50;100.00;99225.91;5054343;28;19990;-91
2021/09/15 04:07:03;;;;;;;;;;;;;;;9.24;100.00;99220.06;5052564;28;19920;-87
2021/09/15 04:09:28;;;;;;;;;;;;;;;9.21;100.00;99220.19;5053259;28;19975;-91
2021/09/15 04:11:54;;;;;;;;;;;;;;;9.14;100.00;99215.25;5053390;28;20240;-88
2021/09/15 04:14:19;;;;;;;;;;;;;;;8.96;100.00;99222.25;5051766;28;19929;-87
2021/09/15 04:16:44;;;;;;;;;;;;;;;8.78;100.00;99219.50;5053155;28;19956;-87
2021/09/15 04:19:09;;;;;;;;;;;;;;;8.77;100.00;99223.06;5053237;28;19916;-87
2021/09/15 04:21:35;;;;;;;;;;;;;;;8.88;100.00;99219.94;5051719;28;19924;-87
2021/09/15 04:31:53;;;;;;;;;;;;;;;8.67;100.00;99221.75;5054244;28;19974;-87
2021/09/15 04:34:18;;;;;;;;;;;;;;;8.64;100.00;99217.47;5053988;28;19921;-86
2021/09/15 04:36:44;;;;;;;;;;;;;;;8.60;100.00;99220.31;5060643;28;20253;-86
2021/09/15 04:39:09;;;;;;;;;;;;;;;8.51;100.00;99219.78;5053922;28;19921;-87
2021/09/15 04:41:34;;;;;;;;;;;;;;;8.49;100.00;99216.34;5052670;28;19920;-87
2021/09/15 08:03:47;;;;;;;;;;;;;;;8.19;100.00;99232.53;5067662;23;19975;-87
2021/09/15 08:06:12;;;;;;;;;;;;;;;8.35;100.00;99227.47;5053163;28;19924;-86
2021/09/15 08:08:38;;;;;;;;;;;;;;;8.25;100.00;99238.47;5053532;28;19919;-90
2021/09/15 08:11:03;;;;;;;;;;;;;;;8.36;100.00;99241.56;5054444;28;19921;-87
2021/09/15 08:13:28;;;;;;;;;;;;;;;17.76;100.00;99222.03;5052424;28;19927;-80
2021/09/15 08:15:53;;;;;;;;;;;;;;;12.68;96.45;99224.84;5051674;28;19952;-89
2021/09/15 08:18:19;;;;;;;;;;;;;;;10.45;100.00;99235.41;5051856;28;19921;-89
2021/09/15 08:20:47;;;;;;;;;;;;;;;9.88;100.00;99232.94;5054065;28;19948;-91
2021/09/15 08:23:13;;;;;;;;;;;;;;;9.62;100.00;99243.84;5048940;28;19950;-90
2021/09/15 08:25:38;;;;;;;;;;;;;;;16.77;100.00;99216.44;5053289;28;19920;-83
2021/09/15 08:28:04;;;;;;;;;;;;;;;20.67;80.72;99210.09;5052784;28;20218;-80
2021/09/15 08:30:30;;;;;;;;;;;;;;;13.40;100.00;99230.19;5051960;28;20367;-88
2021/09/15 08:32:55;;;;;;;;;;;;;;;11.40;100.00;99237.47;5051109;28;20002;-87
2021/09/15 08:35:20;;;;;;;;;;;;;;;10.49;100.00;99234.34;5052636;28;20383;-88
2021/09/15 08:37:46;;;;;;;;;;;;;;;10.04;100.00;99233.91;5051123;28;19968;-88
2021/09/15 08:40:11;;;;;;;;;;;;;;;9.71;100.00;99241.69;5047154;28;19943;-87
2021/09/15 08:42:37;;;;;;;;;;;;;;;9.66;100.00;99241.06;5052165;28;19925;-88
2021/09/15 08:45:04;;;;;;;;;;;;;;;9.54;100.00;99243.34;5053333;28;19940;-89
2021/09/15 08:47:30;;;;;;;;;;;;;;;9.40;100.00;99241.34;5051297;28;19960;-88
2021/09/15 08:49:56;;;;;;;;;;;;;;;9.33;100.00;99236.41;5048462;28;20015;-88
2021/09/15 08:52:21;;;;;;;;;;;;;;;9.13;100.00;99235.56;5051640;28;20007;-88
2021/09/15 08:54:47;;;;;;;;;;;;;;;9.15;100.00;99246.06;5048320;28;20488;-88
2021/09/15 08:57:12;;;;;;;;;;;;;;;9.14;100.00;99239.88;5051201;28;20015;-88
2021/09/15 08:59:37;;;;;;;;;;;;;;;9.16;100.00;99240.69;5051555;28;20379;-88
2021/09/15 09:02:07;;;;;;;;;;;;;;;9.09;100.00;99244.53;5050291;28;19944;-88
2021/09/15 09:04:48;;;;;;;;;;;;;;;9.03;100.00;99244.81;5053015;28;20000;-88
2021/09/15 09:07:14;;;;;;;;;;;;;;;9.08;100.00;99246.34;5052788;28;20011;-87
2021/09/15 09:09:49;;;;;;;;;;;;;;;8.98;100.00;99244.16;5051744;28;20465;-88
2021/09/15 09:12:18;;;;;;;;;;;;;;;8.99;100.00;99241.47;5058951;28;19928;-87
2021/09/15 09:14:44;;;;;;;;;;;;;;;8.93;100.00;99239.09;5051606;28;19968;-88
2021/09/15 09:17:27;;;;;;;;;;;;;;;8.87;100.00;99242.00;5051656;28;20014;-87
2021/09/15 09:20:14;;;;;;;;;;;;;;;8.87;100.00;99247.28;5049217;28;20379;-88
2021/09/15 09:22:59;;;;;;;;;;;;;;;8.93;100.00;99243.53;5053036;28;19923;-87
2021/09/15 09:25:25;;;;;;;;;;;;;;;8.85;100.00;99244.72;5057187;28;20012;-89
2021/09/15 09:27:50;;;;;;;;;;;;;;;8.85;100.00;99254.44;5049074;28;19925;-88
2021/09/15 09:30:48;;;;;;;;;;;;;;;8.86;100.00;99254.34;5050905;28;20406;-87
2021/09/15 09:33:13;;;;;;;;;;;;;;;8.93;100.00;99251.44;5038667;28;19916;-88
2021/09/15 09:35:40;;;;;;;;;;;;;;;8.96;100.00;99248.66;5052522;28;19928;-89
2021/09/15 09:38:25;;;;;;;;;;;;;;;8.84;100.00;99250.06;5047861;28;19928;-88
2021/09/15 09:41:01;;;;;;;;;;;;;;;8.91;100.00;99249.72;5051440;28;19920;-89
2021/09/15 09:43:28;;;;;;;;;;;;;;;8.79;100.00;99246.75;5052236;28;20441;-88
2021/09/15 09:45:53;;;;;;;;;;;;;;;8.97;100.00;99248.59;5052282;28;19999;-89
2021/09/15 09:48:28;;;;;;;;;;;;;;;8.81;100.00;99248.44;5048964;28;20432;-88
2021/09/15 09:50:53;;;;;;;;;;;;;;;8.81;100.00;99240.50;5050721;28;19920;-87
2021/09/15 09:53:18;;;;;;;;;;;;;;;8.89;100.00;99238.38;5050390;28;20007;-88
2021/09/15 09:55:44;;;;;;;;;;;;;;;8.79;100.00;99245.00;5044156;28;19964;-89
2021/09/15 09:58:10;;;;;;;;;;;;;;;8.85;100.00;99244.72;5048770;28;19940;-88
2021/09/15 10:00:37;;;;;;;;;;;;;;;8.94;100.00;99239.97;5049774;28;20286;-87
2021/09/15 10:03:03;;;;;;;;;;;;;;;8.93;100.00;99238.25;5046679;28;20264;-88
2021/09/15 10:05:28;;;;;;;;;;;;;;;8.81;100.00;99240.50;5047469;28;19928;-89
2021/09/15 10:07:53;;;;;;;;;;;;;;;8.84;100.00;99237.72;5049364;28;19921;-87
2021/09/15 10:10:19;;;;;;;;;;;;;;;8.84;100.00;99240.38;5051022;28;19921;-89
2021/09/15 10:12:45;;;;;;;;;;;;;;;8.82;100.00;99244.88;5051170;28;19917;-89
2021/09/15 10:15:11;;;;;;;;;;;;;;;8.81;100.00;99237.00;5050577;28;19967;-89
2021/09/15 10:17:38;;;;;;;;;;;;;;;8.73;100.00;99232.06;5049803;28;19921;-88
2021/09/15 10:20:08;;;;;;;;;;;;;;;8.67;100.00;99230.53;5050962;28;19925;-88
2021/09/15 10:22:34;;;;;;;;;;;;;;;8.72;100.00;99225.91;5050785;28;19921;-89
2021/09/15 10:25:06;;;;;;;;;;;;;;;8.65;100.00;99224.47;5058493;28;19931;-88
2021/09/15 10:27:50;;;;;;;;;;;;;;;8.83;100.00;99227.22;5050199;28;19917;-88
2021/09/15 10:30:15;;;;;;;;;;;;;;;8.75;100.00;99224.91;5050445;28;20284;-88
2021/09/15 10:32:48;;;;;;;;;;;;;;;8.75;100.00;99219.63;5049200;28;19923;-88
2021/09/15 10:35:15;;;;;;;;;;;;;;;8.73;100.00;99216.22;5050356;28;19921;-88
2021/09/15 10:37:40;;;;;;;;;;;;;;;8.70;100.00;99222.47;5050208;28;19917;-88
2021/09/15 10:40:08;;;;;;;;;;;;;;;8.71;100.00;99224.22;5049624;28;19917;-89
2021/09/15 10:42:33;;;;;;;;;;;;;;;8.65;100.00;99219.19;5049916;28;19932;-90
2021/09/15 10:45:17;;;;;;;;;;;;;;;8.78;100.00;99214.22;5048471;28;19912;-89
2021/09/15 10:47:47;;;;;;;;;;;;;;;8.66;100.00;99214.75;5048156;28;19925;-89
2021/09/15 10:50:37;;;;;;;;;;;;;;;8.78;100.00;99216.00;5051261;28;19971;-90
2021/09/15 10:53:12;;;;;;;;;;;;;;;8.78;100.00;99213.38;5047032;28;19917;-89
2021/09/15 10:55:37;;;;;;;;;;;;;;;8.68;100.00;99207.63;5060887;28;19921;-87
2021/09/15 10:58:37;;;;;;;;;;;;;;;8.65;100.00;99205.97;5053484;28;19916;-90
2021/09/15 11:01:06;;;;;;;;;;;;;;;8.68;100.00;99204.97;5055830;28;20379;-87
2021/09/15 11:03:33;;;;;;;;;;;;;;;8.71;100.00;99197.78;5054023;28;19924;-88
2021/09/15 11:06:07;;;;;;;;;;;;;;;8.73;100.00;99211.78;5053493;28;19923;-88
2021/09/15 11:08:35;;;;;;;;;;;;;;;8.79;100.00;99210.66;5053557;28;19921;-88
2021/09/15 11:11:04;;;;;;;;;;;;;;;8.65;100.00;99205.97;5053436;28;19978;-89
2021/09/15 11:13:39;;;;;;;;;;;;;;;8.69;100.00;99206.69;5052334;28;19925;-88
2021/09/15 11:16:22;;;;;;;;;;;;;;;8.76;100.00;99210.78;5051895;28;20016;-88
2021/09/15 11:19:02;;;;;;;;;;;;;;;8.71;100.00;99205.72;5062310;28;19967;-89
2021/09/15 11:21:29;;;;;;;;;;;;;;;8.72;100.00;99204.78;5050347;28;19925;-88
2021/09/15 11:23:55;;;;;;;;;;;;;;;8.88;100.00;99204.09;5063570;28;19917;-88
2021/09/15 11:26:41;;;;;;;;;;;;;;;8.84;100.00;99207.78;5054046;28;20367;-88
2021/09/15 11:29:06;;;;;;;;;;;;;;;8.75;100.00;99211.72;5056511;28;19932;-89
2021/09/15 11:31:33;;;;;;;;;;;;;;;8.69;100.00;99206.69;5052882;28;19917;-89
2021/09/15 11:34:12;;;;;;;;;;;;;;;8.73;100.00;99208.28;5048959;28;19986;-88
2021/09/15 11:36:37;;;;;;;;;;;;;;;8.66;100.00;99209.47;5051240;28;20028;-88
2021/09/15 11:39:04;;;;;;;;;;;;;;;8.70;100.00;99206.63;5049569;28;20016;-87
2021/09/15 11:41:30;;;;;;;;;;;;;;;8.74;100.00;99207.34;5053269;28;20558;-89
2021/09/15 11:43:55;;;;;;;;;;;;;;;8.74;100.00;99212.63;5053589;28;20012;-89
2021/09/15 11:46:29;;;;;;;;;;;;;;;8.70;100.00;99206.63;5054150;28;20333;-89
2021/09/15 11:48:54;;;;;;;;;;;;;;;8.66;100.00;99204.19;5053408;28;20295;-89
2021/09/15 11:51:21;;;;;;;;;;;;;;;8.67;100.00;99208.56;5053419;28;19921;-88
2021/09/15 11:53:52;;;;;;;;;;;;;;;8.85;100.00;99212.16;5062115;28;19921;-88
2021/09/15 11:56:21;;;;;;;;;;;;;;;8.69;100.00;99209.34;5053283;28;19920;-88
2021/09/15 11:58:47;;;;;;;;;;;;;;;8.71;100.00;99212.75;5053227;28;19920;-88
2021/09/15 12:01:16;;;;;;;;;;;;;;;8.58;100.00;99199.25;5053110;28;20023;-88
2021/09/15 12:03:42;;;;;;;;;;;;;;;8.62;100.00;99213.19;5052125;28;19968;-89
2021/09/15 12:06:08;;;;;;;;;;;;;;;8.67;100.00;99200.63;5051635;28;19955;-88
2021/09/15 12:08:33;;;;;;;;;;;;;;;8.67;100.00;99204.13;5052863;28;19924;-88
2021/09/15 12:10:59;;;;;;;;;;;;;;;8.63;100.00;99201.69;5053021;28;19924;-89
2021/09/15 12:13:28;;;;;;;;;;;;;;;8.64;100.00;99200.78;5052792;28;19925;-88
2021/09/15 12:15:53;;;;;;;;;;;;;;;8.67;100.00;99196.19;5052793;28;19917;-88
2021/09/15 12:18:21;;;;;;;;;;;;;;;8.57;100.00;99194.91;5051445;28;20380;-88
2021/09/15 12:20:48;;;;;;;;;;;;;;;8.70;100.00;99197.84;5052856;28;19956;-87
2021/09/15 12:23:15;;;;;;;;;;;;;;;8.72;100.00;99190.72;5052507;28;20291;-88
2021/09/15 12:25:56;;;;;;;;;;;;;;;8.66;100.00;99198.91;5060241;28;19916;-88
2021/09/15 12:28:27;;;;;;;;;;;;;;;8.62;100.00;99192.91;5052489;28;19921;-88
2021/09/15 12:30:52;;;;;;;;;;;;;;;8.64;100.00;99195.50;5059655;28;20983;-88
2021/09/15 12:33:22;;;;;;;;;;;;;;;8.70;100.00;99190.78;5059288;28;19920;-88
2021/09/15 12:35:47;;;;;;;;;;;;;;;8.58;100.00;99191.31;5052341;28;19921;-87
2021/09/15 12:38:12;;;;;;;;;;;;;;;8.73;100.00;99192.44;5050185;28;20394;-88
2021/09/15 12:40:37;;;;;;;;;;;;;;;8.75;100.00;99195.00;5051260;28;19920;-88
2021/09/15 12:43:08;;;;;;;;;;;;;;;8.70;100.00;99185.50;5051350;28;20387;-88
2021/09/15 12:45:34;;;;;;;;;;;;;;;8.75;100.00;99185.28;5057531;28;19916;-89
2021/09/15 12:48:00;;;;;;;;;;;;;;;8.68;100.00;99186.47;5060630;28;20332;-88
2021/09/15 12:50:25;;;;;;;;;;;;;;;8.72;100.00;99191.56;5052338;28;20006;-89
2021/09/15 12:52:58;;;;;;;;;;;;;;;8.72;100.00;99188.91;5052172;28;19916;-89
2021/09/15 12:55:24;;;;;;;;;;;;;;;8.73;100.00;99189.81;5059078;28;19917;-89
2021/09/15 12:58:03;;;;;;;;;;;;;;;8.64;100.00;99175.22;5060271;28;19923;-88
2021/09/15 13:00:55;;;;;;;;;;;;;;;8.69;100.00;99182.94;5060186;28;20022;-89
2021/09/15 13:03:20;;;;;;;;;;;;;;;8.58;100.00;99179.91;5057879;28;20295;-88
2021/09/15 13:05:47;;;;;;;;;;;;;;;8.61;100.00;99187.69;5052134;28;19921;-88
2021/09/15 13:08:19;;;;;;;;;;;;;;;8.56;100.00;99187.91;5053506;28;19917;-88
2021/09/15 13:10:48;;;;;;;;;;;;;;;8.54;100.00;99180.03;5059219;28;19989;-88
2021/09/15 13:13:13;;;;;;;;;;;;;;;8.52;100.00;99186.31;5060807;28;20015;-89
2021/09/15 13:15:39;;;;;;;;;;;;;;;8.59;100.00;99186.91;5051692;28;20007;-88
2021/09/15 13:18:04;;;;;;;;;;;;;;;8.65;100.00;99191.94;5056499;28;19984;-88
2021/09/15 13:20:29;;;;;;;;;;;;;;;8.63;100.00;99185.84;5051560;28;19943;-88
2021/09/15 13:22:54;;;;;;;;;;;;;;;8.56;100.00;99187.91;5058193;28;19923;-88
2021/09/15 13:25:20;;;;;;;;;;;;;;;8.59;100.00;99192.19;5051464;28;19940;-88
2021/09/15 13:27:45;;;;;;;;;;;;;;;8.59;100.00;99192.19;5051598;28;19924;-88
2021/09/15 13:30:11;;;;;;;;;;;;;;;8.57;100.00;99194.03;5052587;28;19920;-88
2021/09/15 13:32:37;;;;;;;;;;;;;;;8.58;100.00;99196.59;5050082;28;19917;-88
2021/09/15 13:35:02;;;;;;;;;;;;;;;8.53;100.00;99196.78;5050953;28;19970;-89
2021/09/15 13:37:27;;;;;;;;;;;;;;;8.69;100.00;99198.78;5051211;28;20470;-88
2021/09/15 13:39:58;;;;;;;;;;;;;;;8.55;100.00;99196.72;5051358;28;19917;-88
2021/09/15 13:42:23;;;;;;;;;;;;;;;8.53;100.00;99196.78;5050920;28;20011;-88
2021/09/15 13:44:49;;;;;;;;;;;;;;;8.48;100.00;99196.16;5051086;28;20008;-88
2021/09/15 13:47:14;;;;;;;;;;;;;;;8.47;100.00;99198.84;5051218;28;20385;-88
2021/09/15 13:49:39;;;;;;;;;;;;;;;8.53;100.00;99199.44;5050969;28;20421;-88
2021/09/15 13:52:08;;;;;;;;;;;;;;;8.47;100.00;99190.94;5051096;28;19916;-89
2021/09/15 13:54:34;;;;;;;;;;;;;;;8.58;100.00;99195.75;5050768;28;19924;-89
2021/09/15 13:56:59;;;;;;;;;;;;;;;8.59;100.00;99197.47;5052064;28;19920;-88
2021/09/15 13:59:26;;;;;;;;;;;;;;;8.62;100.00;99203.47;5051378;28;20116;-87
2021/09/15 14:01:52;;;;;;;;;;;;;;;8.49;100.00;99197.88;5050959;28;19925;-88
2021/09/15 14:04:17;;;;;;;;;;;;;;;8.47;100.00;99198.84;5050587;28;19921;-89
2021/09/15 14:06:42;;;;;;;;;;;;;;;8.53;100.00;99196.78;5050935;28;19932;-90
2021/09/15 14:09:07;;;;;;;;;;;;;;;8.57;100.00;99194.03;5050884;28;19916;-88
2021/09/15 14:11:33;;;;;;;;;;;;;;;8.50;100.00;99199.59;5049917;28;20360;-88
2021/09/15 14:13:58;;;;;;;;;;;;;;;8.44;100.00;99191.94;5057532;28;19921;-88
2021/09/15 14:16:23;;;;;;;;;;;;;;;8.54;100.00;99187.13;5049624;28;19924;-88
2021/09/15 14:18:48;;;;;;;;;;;;;;;8.64;100.00;99179.63;5050712;28;19921;-88
2021/09/15 14:21:14;;;;;;;;;;;;;;;8.56;100.00;99174.69;5050604;28;19927;-88
2021/09/15 14:23:39;;;;;;;;;;;;;;;8.59;100.00;99182.47;5052116;28;19916;-89
2021/09/15 14:26:04;;;;;;;;;;;;;;;8.56;100.00;99176.50;5051800;28;19917;-87
2021/09/15 14:28:30;;;;;;;;;;;;;;;8.47;100.00;99178.63;5050111;28;19921;-88
2021/09/15 14:30:55;;;;;;;;;;;;;;;8.54;100.00;99177.41;5050300;28;19921;-87
2021/09/15 14:33:20;;;;;;;;;;;;;;;8.57;100.00;99172.91;5050578;28;20036;-87
2021/09/15 14:35:46;;;;;;;;;;;;;;;8.62;100.00;99170.94;5050475;28;20060;-86
2021/09/15 14:38:11;;;;;;;;;;;;;;;8.50;100.00;99169.69;5050643;28;20003;-87
2021/09/15 14:40:36;;;;;;;;;;;;;;;8.60;100.00;99168.38;5050323;28;19917;-86
2021/09/15 14:43:02;;;;;;;;;;;;;;;8.61;100.00;99179.78;5050384;28;20375;-87
2021/09/15 14:45:27;;;;;;;;;;;;;;;8.50;100.00;99178.47;5050008;28;19924;-86
2021/09/15 14:47:52;;;;;;;;;;;;;;;8.57;100.00;99183.47;5049085;28;19920;-88
2021/09/15 14:50:17;;;;;;;;;;;;;;;8.64;100.00;99179.63;5050332;28;19917;-87
2021/09/15 14:52:43;;;;;;;;;;;;;;;8.65;100.00;99176.09;5050412;28;20443;-87
2021/09/15 14:55:09;;;;;;;;;;;;;;;8.50;100.00;99182.88;5050245;28;19925;-87
2021/09/15 14:57:34;;;;;;;;;;;;;;;8.48;100.00;99184.75;5050045;28;19986;-87
2021/09/15 15:00:00;;;;;;;;;;;;;;;8.63;100.00;99173.50;5050226;28;20364;-87
2021/09/15 15:02:26;;;;;;;;;;;;;;;8.66;100.00;99183.06;5050009;28;19917;-88
2021/09/15 15:04:51;;;;;;;;;;;;;;;8.64;100.00;99174.34;5050230;28;20344;-88
2021/09/15 15:07:16;;;;;;;;;;;;;;;8.61;100.00;99182.41;5050055;28;19931;-86
2021/09/15 15:09:43;;;;;;;;;;;;;;;8.54;100.00;99185.31;5051428;28;20395;-86
2021/09/15 15:12:09;;;;;;;;;;;;;;;8.64;100.00;99184.91;5049851;28;20000;-86
2021/09/15 15:14:34;;;;;;;;;;;;;;;8.51;100.00;99185.47;5051500;28;20004;-86
2021/09/15 15:17:00;;;;;;;;;;;;;;;8.65;100.00;99187.50;5049917;28;19971;-86
2021/09/15 15:19:25;;;;;;;;;;;;;;;8.52;100.00;99187.19;5050014;28;19991;-86
2021/09/15 15:21:51;;;;;;;;;;;;;;;8.56;100.00;99192.34;5051321;28;19917;-86
2021/09/15 15:24:16;;;;;;;;;;;;;;;8.49;100.00;99195.25;5051217;28;19925;-86
2021/09/15 15:26:41;;;;;;;;;;;;;;;8.63;100.00;99189.34;5051038;28;19921;-86
2021/09/15 15:29:08;;;;;;;;;;;;;;;8.59;100.00;99189.56;5051227;28;19990;-87
2021/09/15 15:31:34;;;;;;;;;;;;;;;8.61;100.00;99185.91;5048218;28;19924;-86
2021/09/15 15:33:59;;;;;;;;;;;;;;;8.60;100.00;99189.50;5051139;28;19916;-86
2021/09/15 15:36:24;;;;;;;;;;;;;;;8.53;100.00;99188.88;5050026;28;20375;-86
2021/09/15 15:38:49;;;;;;;;;;;;;;;8.56;100.00;99192.34;5049896;28;19973;-85
2021/09/15 15:41:15;;;;;;;;;;;;;;;8.58;100.00;99188.69;5053365;28;19924;-86
2021/09/15 15:43:40;;;;;;;;;;;;;;;8.56;100.00;99192.34;5054685;28;19917;-86
2021/09/15 15:46:05;;;;;;;;;;;;;;;8.57;100.00;99207.22;5054887;28;19955;-86
2021/09/15 15:48:31;;;;;;;;;;;;;;;8.52;100.00;99195.09;5053272;28;19917;-86
2021/09/15 15:50:57;;;;;;;;;;;;;;;8.63;100.00;99204.31;5054668;28;19924;-86
2021/09/15 15:53:22;;;;;;;;;;;;;;;8.62;100.00;99192.06;5054220;28;19949;-86
2021/09/15 15:55:48;;;;;;;;;;;;;;;8.55;100.00;99186.16;5054448;28;19921;-87
2021/09/15 15:58:14;;;;;;;;;;;;;;;8.61;100.00;99190.34;5053228;28;19917;-86
2021/09/15 16:00:39;;;;;;;;;;;;;;;8.56;100.00;99195.81;5054529;28;19924;-86
2021/09/15 16:03:04;;;;;;;;;;;;;;;8.59;100.00;99186.91;5053046;28;19921;-86
2021/09/15 16:05:30;;;;;;;;;;;;;;;8.75;100.00;99192.38;5054272;28;19971;-86
2021/09/15 16:07:55;;;;;;;;;;;;;;;8.53;100.00;99185.38;5053099;28;19936;-86
2021/09/15 16:10:20;;;;;;;;;;;;;;;8.54;100.00;99187.97;5053079;28;20049;-86
2021/09/15 16:12:46;;;;;;;;;;;;;;;8.61;100.00;99191.19;5053475;28;19970;-86
2021/09/15 16:15:11;;;;;;;;;;;;;;;8.64;100.00;99190.19;5054317;28;19924;-87
2021/09/15 16:17:36;;;;;;;;;;;;;;;8.60;100.00;99186.84;5051494;28;19927;-88
2021/09/15 16:20:02;;;;;;;;;;;;;;;8.66;100.00;99188.34;5054023;28;19923;-86
2021/09/15 16:22:27;;;;;;;;;;;;;;;8.63;100.00;99184.06;5050955;28;19917;-87
2021/09/15 16:24:53;;;;;;;;;;;;;;;8.66;100.00;99188.34;5054091;28;19928;-86
2021/09/15 16:27:18;;;;;;;;;;;;;;;8.64;100.00;99188.41;5054736;28;20405;-86
2021/09/15 16:29:44;;;;;;;;;;;;;;;8.64;100.00;99195.50;5053845;28;19924;-86
2021/09/15 16:32:09;;;;;;;;;;;;;;;8.65;100.00;99197.22;5052753;28;19917;-87
2021/09/15 16:34:35;;;;;;;;;;;;;;;8.62;100.00;99197.34;5052069;28;20252;-86
2021/09/15 16:37:00;;;;;;;;;;;;;;;8.68;100.00;99197.03;5053929;28;19928;-86
2021/09/15 16:39:25;;;;;;;;;;;;;;;8.84;100.00;99197.22;5053427;28;19965;-86
2021/09/15 16:41:51;;;;;;;;;;;;;;;8.82;100.00;99194.69;5054413;28;20463;-86
2021/09/15 16:44:16;;;;;;;;;;;;;;;8.76;100.00;99184.38;5053869;28;19928;-86
2021/09/15 16:46:42;;;;;;;;;;;;;;;8.82;100.00;99183.22;5052415;28;19916;-86
2021/09/15 16:49:08;;;;;;;;;;;;;;;8.85;100.00;99180.44;5060311;28;19921;-86
2021/09/15 16:51:33;;;;;;;;;;;;;;;8.67;100.00;99190.06;5051651;28;19920;-85
2021/09/15 16:53:58;;;;;;;;;;;;;;;8.56;100.00;99187.91;5051616;28;19917;-86
2021/09/15 16:56:24;;;;;;;;;;;;;;;8.69;100.00;99183.78;5051942;28;20493;-84
2021/09/15 16:58:51;;;;;;;;;;;;;;;8.67;100.00;99188.28;5051947;28;19917;-86
2021/09/15 17:01:16;;;;;;;;;;;;;;;8.57;100.00;99184.34;5053304;28;20363;-86
2021/09/15 17:03:41;;;;;;;;;;;;;;;8.66;100.00;99183.06;5052086;28;19960;-86
2021/09/15 17:06:07;;;;;;;;;;;;;;;8.72;100.00;99185.44;5051962;28;19920;-86
2021/09/15 17:08:32;;;;;;;;;;;;;;;8.64;100.00;99195.50;5052056;28;19920;-85
2021/09/15 17:10:57;;;;;;;;;;;;;;;8.61;100.00;99190.34;5051380;28;20356;-86
2021/09/15 17:13:22;;;;;;;;;;;;;;;8.71;100.00;99196.91;5051875;28;20272;-86
2021/09/15 17:15:48;;;;;;;;;;;;;;;8.72;100.00;99198.63;5059714;28;20364;-86
2021/09/15 17:18:13;;;;;;;;;;;;;;;8.71;100.00;99202.19;5050463;28;19943;-86
2021/09/15 17:20:40;;;;;;;;;;;;;;;8.60;100.00;99202.69;5054608;28;20342;-87
2021/09/15 17:23:06;;;;;;;;;;;;;;;8.52;100.00;99197.75;5051690;28;20387;-86
2021/09/15 17:25:31;;;;;;;;;;;;;;;8.48;100.00;99197.94;5051478;28;19917;-86
2021/09/15 17:27:56;;;;;;;;;;;;;;;8.63;100.00;99193.75;5052913;28;19921;-86
2021/09/15 17:30:22;;;;;;;;;;;;;;;8.64;100.00;99201.63;5051540;28;19917;-86
2021/09/15 17:32:47;;;;;;;;;;;;;;;8.58;100.00;99193.97;5051669;28;19921;-86
2021/09/15 17:35:12;;;;;;;;;;;;;;;8.44;100.00;99199.88;5052673;28;19924;-86
2021/09/15 17:37:38;;;;;;;;;;;;;;;8.52;100.00;99207.44;5051269;28;19922;-86
2021/09/15 17:40:03;;;;;;;;;;;;;;;8.58;100.00;99211.59;5057822;28;19964;-87
2021/09/15 17:42:29;;;;;;;;;;;;;;;8.56;100.00;99205.53;5050020;28;20371;-86
2021/09/15 17:44:54;;;;;;;;;;;;;;;8.48;100.00;99213.78;5050535;28;20376;-86
2021/09/15 17:47:19;;;;;;;;;;;;;;;8.51;100.00;99218.94;5049833;28;20377;-86
2021/09/15 17:49:44;;;;;;;;;;;;;;;8.51;100.00;99217.13;5051174;28;19921;-86
2021/09/15 17:52:10;;;;;;;;;;;;;;;8.58;100.00;99219.53;5046534;28;20431;-86
2021/09/15 17:54:35;;;;;;;;;;;;;;;8.58;100.00;99216.88;5050946;28;19928;-85
2021/09/15 17:57:01;;;;;;;;;;;;;;;8.56;100.00;99226.66;5059030;28;19923;-86
2021/09/15 17:59:27;;;;;;;;;;;;;;;8.52;100.00;99229.44;5051269;28;20019;-87
2021/09/15 18:01:52;;;;;;;;;;;;;;;8.53;100.00;99230.28;5049564;28;20011;-87
2021/09/15 18:04:17;;;;;;;;;;;;;;;8.55;100.00;99233.69;5050719;28;19925;-86
2021/09/15 18:06:43;;;;;;;;;;;;;;;8.45;100.00;99241.16;5050727;28;19921;-88
2021/09/15 18:09:08;;;;;;;;;;;;;;;8.43;100.00;99239.50;5052066;28;19924;-87
2021/09/15 18:11:33;;;;;;;;;;;;;;;8.60;100.00;99230.88;5050165;28;19921;-86
2021/09/15 18:13:59;;;;;;;;;;;;;;;8.57;100.00;99233.63;5050580;28;20291;-87
2021/09/15 18:16:24;;;;;;;;;;;;;;;8.50;100.00;99240.97;5050278;28;19917;-86
2021/09/15 18:18:50;;;;;;;;;;;;;;;8.56;100.00;99238.06;5051029;28;20007;-88
2021/09/15 18:21:16;;;;;;;;;;;;;;;8.57;100.00;99249.47;5046164;28;19924;-88
2021/09/15 18:23:41;;;;;;;;;;;;;;;8.50;100.00;99247.13;5051637;28;19921;-87
2021/09/15 18:26:07;;;;;;;;;;;;;;;8.51;100.00;99248.81;5047613;28;20401;-86
2021/09/15 18:28:32;;;;;;;;;;;;;;;25.04;100.00;99383.84;5050607;28;20038;-93
2021/09/15 18:30:58;;;;;;;;;;;;;;;10.13;91.13;99251.97;5050985;28;19928;-93
2021/09/15 18:33:23;;;;;;;;;;;;;;;9.05;100.00;99258.84;5051250;28;19971;-90
2021/09/15 18:35:48;;;;;;;;;;;;;;;8.80;100.00;99261.69;5050414;28;19921;-87
2021/09/15 18:38:14;;;;;;;;;;;;;;;8.62;100.00;99271.28;5051715;28;20016;-89
2021/09/15 18:40:43;;;;;;;;;;;;;;;8.66;100.00;99262.28;5050594;28;19983;-87
2021/09/15 18:43:09;;;;;;;;;;;;;;;8.71;100.00;99255.91;5050466;28;20288;-89
2021/09/15 18:45:35;;;;;;;;;;;;;;;8.60;100.00;99265.19;5057387;28;19916;-86
2021/09/15 18:48:00;;;;;;;;;;;;;;;8.56;100.00;99263.63;5048935;28;19923;-86
2021/09/15 18:50:25;;;;;;;;;;;;;;;8.53;100.00;99260.16;5050256;28;20010;-87
2021/09/15 18:52:51;;;;;;;;;;;;;;;8.54;100.00;99269.81;5050247;28;19923;-91
2021/09/15 18:55:16;;;;;;;;;;;;;;;8.60;100.00;99278.41;5050048;28;19921;-86
2021/09/15 18:57:42;;;;;;;;;;;;;;;8.52;100.00;99279.59;5050379;28;19925;-88
2021/09/15 19:00:08;;;;;;;;;;;;;;;8.44;100.00;99276.44;5051784;28;19924;-86
2021/09/15 19:02:33;;;;;;;;;;;;;;;8.51;100.00;99280.50;5049444;28;19917;-91
2021/09/15 19:04:58;;;;;;;;;;;;;;;8.49;100.00;99285.00;5050553;28;20331;-86
2021/09/15 19:07:24;;;;;;;;;;;;;;;8.51;100.00;99285.78;5050462;28;19928;-89
2021/09/15 19:09:49;;;;;;;;;;;;;;;8.50;100.00;99285.84;5050281;28;19924;-89
2021/09/15 19:12:14;;;;;;;;;;;;;;;8.48;100.00;99293.84;5050324;28;20007;-91
2021/09/15 19:14:39;;;;;;;;;;;;;;;8.46;100.00;99287.78;5050562;28;20004;-90
2021/09/15 19:17:05;;;;;;;;;;;;;;;8.56;100.00;99292.69;5052721;28;19928;-90
2021/09/15 19:19:30;;;;;;;;;;;;;;;8.41;100.00;99297.66;5054483;28;19916;-86
2021/09/15 19:21:55;;;;;;;;;;;;;;;8.42;100.00;99301.13;5054008;28;19921;-88
2021/09/15 19:24:21;;;;;;;;;;;;;;;8.39;100.00;99303.91;5054317;28;19973;-87